CEB515 RPSP-RPMR
Flight info
| Callsign | CEB515 |
|---|---|
| Flight time | N/A |
| Altitude | 28999 |
| Route | DCT SIKIN W7 LUMVI W6 LATIA LATIA1 |
| Aircraft | A20N/L-SDE2E3FGHIRWXY/LB1 |
Departure
| Time | 2026-04-17 17:10 |
|---|---|
| Airport | Bohol-Panglao International Airport (RPSP) |
Arrival
| Time | N/A |
|---|---|
| Airport | General Santos International Airport (RPMR) |
| Time | Latitude | Longitude | Altitude | Speed | Heading |
|---|---|---|---|---|---|
| 2026-04-17 16:27 | 9.56978 | 123.77212 | 48 ft | 0 kts | 121° |
| 2026-04-17 16:56 | 9.56983 | 123.77203 | 48 ft | 2 kts | 121° |
| 2026-04-17 16:56 | 9.56991 | 123.77191 | 48 ft | 2 kts | 121° |
| 2026-04-17 16:57 | 9.56998 | 123.77179 | 48 ft | 2 kts | 121° |
| 2026-04-17 16:57 | 9.57007 | 123.77165 | 48 ft | 2 kts | 121° |
| 2026-04-17 16:57 | 9.57015 | 123.77151 | 47 ft | 1 kts | 121° |
| 2026-04-17 16:57 | 9.57020 | 123.77142 | 48 ft | 2 kts | 107° |
| 2026-04-17 16:58 | 9.57020 | 123.77126 | 48 ft | 2 kts | 69° |
| 2026-04-17 16:58 | 9.57011 | 123.77114 | 48 ft | 1 kts | 37° |
| 2026-04-17 16:58 | 9.57009 | 123.77113 | 48 ft | 1 kts | 31° |
| 2026-04-17 16:58 | 9.57015 | 123.77117 | 48 ft | 0 kts | 36° |
| 2026-04-17 17:01 | 9.57017 | 123.77119 | 48 ft | 0 kts | 35° |
| 2026-04-17 17:02 | 9.57033 | 123.77129 | 48 ft | 5 kts | 33° |
| 2026-04-17 17:02 | 9.57074 | 123.77154 | 48 ft | 7 kts | 30° |
| 2026-04-17 17:02 | 9.57123 | 123.77183 | 48 ft | 8 kts | 31° |
| 2026-04-17 17:02 | 9.57177 | 123.77214 | 48 ft | 9 kts | 29° |
| 2026-04-17 17:03 | 9.57237 | 123.77243 | 48 ft | 5 kts | 6° |
| 2026-04-17 17:03 | 9.57277 | 123.77225 | 48 ft | 6 kts | 314° |
| 2026-04-17 17:03 | 9.57307 | 123.77181 | 48 ft | 8 kts | 302° |
| 2026-04-17 17:03 | 9.57331 | 123.77142 | 48 ft | 6 kts | 302° |
| 2026-04-17 17:04 | 9.57359 | 123.77098 | 48 ft | 7 kts | 303° |
| 2026-04-17 17:04 | 9.57410 | 123.77082 | 48 ft | 8 kts | 16° |
| 2026-04-17 17:04 | 9.57467 | 123.77113 | 48 ft | 9 kts | 31° |
| 2026-04-17 17:04 | 9.57529 | 123.77150 | 48 ft | 10 kts | 31° |
| 2026-04-17 17:05 | 9.57595 | 123.77189 | 48 ft | 11 kts | 29° |
| 2026-04-17 17:05 | 9.57675 | 123.77235 | 48 ft | 13 kts | 30° |
| 2026-04-17 17:05 | 9.57760 | 123.77286 | 48 ft | 14 kts | 31° |
| 2026-04-17 17:05 | 9.57847 | 123.77339 | 48 ft | 14 kts | 32° |
| 2026-04-17 17:06 | 9.57938 | 123.77393 | 48 ft | 14 kts | 30° |
| 2026-04-17 17:06 | 9.58028 | 123.77446 | 48 ft | 14 kts | 31° |
| 2026-04-17 17:06 | 9.58118 | 123.77501 | 48 ft | 15 kts | 30° |
| 2026-04-17 17:06 | 9.58209 | 123.77554 | 48 ft | 15 kts | 30° |
| 2026-04-17 17:07 | 9.58295 | 123.77595 | 48 ft | 12 kts | 25° |
| 2026-04-17 17:07 | 9.58343 | 123.77632 | 48 ft | 4 kts | 79° |
| 2026-04-17 17:07 | 9.58335 | 123.77640 | 48 ft | 1 kts | 227° |
| 2026-04-17 17:07 | 9.58324 | 123.77622 | 48 ft | 4 kts | 207° |
| 2026-04-17 17:08 | 9.58312 | 123.77615 | 48 ft | 0 kts | 211° |
| 2026-04-17 17:09 | 9.58201 | 123.77548 | 48 ft | 57 kts | 210° |
| 2026-04-17 17:09 | 9.57609 | 123.77196 | 48 ft | 135 kts | 210° |
| 2026-04-17 17:09 | 9.56651 | 123.76636 | 383 ft | 164 kts | 210° |
| 2026-04-17 17:10 | 9.55678 | 123.76044 | 1091 ft | 166 kts | 210° |
| 2026-04-17 17:10 | 9.54617 | 123.75674 | 1754 ft | 163 kts | 179° |
| 2026-04-17 17:10 | 9.53489 | 123.75787 | 2367 ft | 162 kts | 167° |
| 2026-04-17 17:10 | 9.52380 | 123.76012 | 2961 ft | 163 kts | 166° |
| 2026-04-17 17:11 | 9.51256 | 123.76231 | 3498 ft | 170 kts | 168° |
| 2026-04-17 17:11 | 9.50031 | 123.76440 | 3928 ft | 185 kts | 170° |
| 2026-04-17 17:11 | 9.48695 | 123.76640 | 4330 ft | 201 kts | 171° |
| 2026-04-17 17:11 | 9.47292 | 123.77035 | 4699 ft | 217 kts | 148° |
| 2026-04-17 17:12 | 9.46055 | 123.77976 | 5158 ft | 232 kts | 137° |
| 2026-04-17 17:12 | 9.44775 | 123.79118 | 5540 ft | 254 kts | 137° |
| 2026-04-17 17:12 | 9.43384 | 123.80336 | 6035 ft | 273 kts | 139° |
| 2026-04-17 17:12 | 9.41887 | 123.81599 | 6689 ft | 284 kts | 140° |
| 2026-04-17 17:13 | 9.40356 | 123.82855 | 7528 ft | 287 kts | 140° |
| 2026-04-17 17:13 | 9.38795 | 123.84116 | 8365 ft | 288 kts | 141° |
| 2026-04-17 17:13 | 9.37195 | 123.85397 | 9170 ft | 291 kts | 141° |
| 2026-04-17 17:13 | 9.35591 | 123.86674 | 9944 ft | 294 kts | 141° |
| 2026-04-17 17:14 | 9.33948 | 123.87980 | 10561 ft | 302 kts | 141° |
| 2026-04-17 17:14 | 9.32261 | 123.89318 | 10900 ft | 319 kts | 141° |
| 2026-04-17 17:14 | 9.30448 | 123.90755 | 11201 ft | 337 kts | 141° |
| 2026-04-17 17:15 | 9.26587 | 123.93811 | 11974 ft | 362 kts | 141° |
| 2026-04-17 17:15 | 9.24582 | 123.95397 | 12587 ft | 366 kts | 141° |
| 2026-04-17 17:15 | 9.22564 | 123.96993 | 13183 ft | 370 kts | 141° |
| 2026-04-17 17:15 | 9.20496 | 123.98628 | 13752 ft | 374 kts | 141° |
| 2026-04-17 17:16 | 9.18455 | 124.00241 | 14309 ft | 378 kts | 141° |
| 2026-04-17 17:16 | 9.16329 | 124.01921 | 14875 ft | 382 kts | 141° |
| 2026-04-17 17:16 | 9.14241 | 124.03571 | 15423 ft | 385 kts | 141° |
| 2026-04-17 17:16 | 9.12119 | 124.05248 | 15946 ft | 389 kts | 141° |
| 2026-04-17 17:17 | 9.09981 | 124.06939 | 16461 ft | 392 kts | 141° |
| 2026-04-17 17:17 | 9.07799 | 124.08662 | 16977 ft | 395 kts | 141° |
| 2026-04-17 17:17 | 9.05623 | 124.10382 | 17470 ft | 399 kts | 140° |
| 2026-04-17 17:17 | 9.03429 | 124.12116 | 17966 ft | 401 kts | 140° |
| 2026-04-17 17:18 | 9.01196 | 124.13880 | 18453 ft | 404 kts | 140° |
| 2026-04-17 17:18 | 8.98950 | 124.15655 | 18935 ft | 406 kts | 141° |
| 2026-04-17 17:18 | 8.96724 | 124.17413 | 19401 ft | 409 kts | 140° |
| 2026-04-17 17:18 | 8.94465 | 124.19196 | 19857 ft | 411 kts | 140° |
| 2026-04-17 17:19 | 8.92191 | 124.20991 | 20318 ft | 414 kts | 140° |
| 2026-04-17 17:19 | 8.89909 | 124.22794 | 20761 ft | 416 kts | 140° |
| 2026-04-17 17:19 | 8.87599 | 124.24615 | 21198 ft | 419 kts | 140° |
| 2026-04-17 17:19 | 8.85309 | 124.26423 | 21626 ft | 421 kts | 140° |
| 2026-04-17 17:20 | 8.82985 | 124.28256 | 22054 ft | 424 kts | 140° |
| 2026-04-17 17:20 | 8.80625 | 124.30118 | 22486 ft | 426 kts | 140° |
| 2026-04-17 17:20 | 8.78285 | 124.31964 | 22908 ft | 428 kts | 140° |
| 2026-04-17 17:20 | 8.75891 | 124.33852 | 23333 ft | 431 kts | 141° |
| 2026-04-17 17:21 | 8.73555 | 124.35695 | 23745 ft | 433 kts | 141° |
| 2026-04-17 17:21 | 8.71155 | 124.37588 | 24160 ft | 436 kts | 141° |
| 2026-04-17 17:21 | 8.68767 | 124.39470 | 24548 ft | 438 kts | 141° |
| 2026-04-17 17:21 | 8.66334 | 124.41387 | 24939 ft | 441 kts | 141° |
| 2026-04-17 17:22 | 8.63890 | 124.43314 | 25325 ft | 443 kts | 141° |
| 2026-04-17 17:22 | 8.61448 | 124.45237 | 25695 ft | 446 kts | 141° |
| 2026-04-17 17:22 | 8.58978 | 124.47183 | 26063 ft | 448 kts | 141° |
| 2026-04-17 17:22 | 8.56508 | 124.49129 | 26431 ft | 451 kts | 141° |
| 2026-04-17 17:23 | 8.53996 | 124.51108 | 26787 ft | 453 kts | 141° |
| 2026-04-17 17:23 | 8.51516 | 124.53061 | 27148 ft | 455 kts | 141° |
| 2026-04-17 17:23 | 8.48987 | 124.55052 | 27587 ft | 455 kts | 141° |
| 2026-04-17 17:23 | 8.46500 | 124.57009 | 27973 ft | 455 kts | 141° |
| 2026-04-17 17:24 | 8.43869 | 124.58880 | 28281 ft | 458 kts | 150° |
| 2026-04-17 17:24 | 8.40946 | 124.60192 | 28595 ft | 459 kts | 162° |
| 2026-04-17 17:24 | 8.37814 | 124.60889 | 28921 ft | 460 kts | 173° |
| 2026-04-17 17:25 | 8.31327 | 124.61043 | 29005 ft | 460 kts | 180° |
| 2026-04-17 17:25 | 8.24839 | 124.61011 | 29022 ft | 461 kts | 180° |
| 2026-04-17 17:26 | 8.18371 | 124.60998 | 29040 ft | 461 kts | 180° |
| 2026-04-17 17:26 | 8.11872 | 124.61002 | 29063 ft | 460 kts | 180° |
| 2026-04-17 17:27 | 8.05434 | 124.61012 | 29089 ft | 460 kts | 180° |
| 2026-04-17 17:27 | 7.98957 | 124.61026 | 29118 ft | 461 kts | 180° |
| 2026-04-17 17:28 | 7.92464 | 124.61040 | 29124 ft | 460 kts | 180° |
| 2026-04-17 17:28 | 7.85961 | 124.61054 | 29118 ft | 460 kts | 180° |
| 2026-04-17 17:29 | 7.79466 | 124.61069 | 29116 ft | 461 kts | 180° |
| 2026-04-17 17:29 | 7.73008 | 124.61083 | 29110 ft | 461 kts | 180° |
| 2026-04-17 17:30 | 7.66493 | 124.61097 | 29090 ft | 462 kts | 179° |
| 2026-04-17 17:30 | 7.60029 | 124.61114 | 29067 ft | 462 kts | 179° |
| 2026-04-17 17:31 | 7.53562 | 124.61135 | 29045 ft | 462 kts | 179° |
| 2026-04-17 17:31 | 7.47085 | 124.61152 | 29022 ft | 462 kts | 179° |
| 2026-04-17 17:32 | 7.40588 | 124.61166 | 29001 ft | 462 kts | 179° |
| 2026-04-17 17:32 | 7.34084 | 124.61182 | 28979 ft | 463 kts | 179° |
| 2026-04-17 17:33 | 7.27556 | 124.61196 | 28682 ft | 463 kts | 179° |
| 2026-04-17 17:33 | 7.24306 | 124.61204 | 28428 ft | 460 kts | 179° |
| 2026-04-17 17:33 | 7.21117 | 124.61211 | 28184 ft | 458 kts | 179° |
| 2026-04-17 17:33 | 7.17890 | 124.61218 | 27937 ft | 456 kts | 179° |
| 2026-04-17 17:34 | 7.14693 | 124.61225 | 27691 ft | 455 kts | 179° |
| 2026-04-17 17:34 | 7.11473 | 124.61232 | 27442 ft | 455 kts | 179° |
| 2026-04-17 17:34 | 7.08272 | 124.61238 | 27197 ft | 456 kts | 179° |
| 2026-04-17 17:34 | 7.05095 | 124.61246 | 26952 ft | 456 kts | 179° |
| 2026-04-17 17:35 | 7.01860 | 124.61252 | 26703 ft | 456 kts | 179° |
| 2026-04-17 17:35 | 6.98688 | 124.61259 | 26349 ft | 456 kts | 179° |
| 2026-04-17 17:35 | 6.95493 | 124.61266 | 25933 ft | 452 kts | 179° |
| 2026-04-17 17:35 | 6.92328 | 124.61274 | 25483 ft | 449 kts | 179° |
| 2026-04-17 17:36 | 6.89200 | 124.61280 | 24970 ft | 446 kts | 180° |
| 2026-04-17 17:36 | 6.86074 | 124.61287 | 24421 ft | 443 kts | 180° |
| 2026-04-17 17:36 | 6.82968 | 124.61293 | 23857 ft | 441 kts | 180° |
| 2026-04-17 17:36 | 6.79873 | 124.61299 | 23297 ft | 439 kts | 180° |
| 2026-04-17 17:37 | 6.76792 | 124.61305 | 22744 ft | 437 kts | 180° |
| 2026-04-17 17:37 | 6.73761 | 124.61309 | 22183 ft | 435 kts | 180° |
| 2026-04-17 17:37 | 6.70699 | 124.61316 | 21646 ft | 433 kts | 179° |
| 2026-04-17 17:37 | 6.67707 | 124.61677 | 21101 ft | 431 kts | 165° |
| 2026-04-17 17:38 | 6.64888 | 124.62832 | 20563 ft | 429 kts | 149° |
| 2026-04-17 17:38 | 6.62449 | 124.64537 | 20061 ft | 425 kts | 142° |
| 2026-04-17 17:38 | 6.60122 | 124.66332 | 19567 ft | 422 kts | 141° |
| 2026-04-17 17:38 | 6.57780 | 124.68153 | 19057 ft | 418 kts | 142° |
| 2026-04-17 17:39 | 6.55464 | 124.69939 | 18554 ft | 415 kts | 142° |
| 2026-04-17 17:39 | 6.53177 | 124.71690 | 18057 ft | 412 kts | 142° |
| 2026-04-17 17:39 | 6.50884 | 124.73436 | 17557 ft | 408 kts | 142° |
| 2026-04-17 17:39 | 6.48611 | 124.75162 | 17063 ft | 405 kts | 142° |
| 2026-04-17 17:40 | 6.46360 | 124.76869 | 16566 ft | 401 kts | 143° |
| 2026-04-17 17:40 | 6.44103 | 124.78580 | 16067 ft | 398 kts | 143° |
| 2026-04-17 17:40 | 6.41898 | 124.80250 | 15561 ft | 395 kts | 143° |
| 2026-04-17 17:40 | 6.39755 | 124.81953 | 15154 ft | 389 kts | 138° |
| 2026-04-17 17:41 | 6.37873 | 124.83908 | 14833 ft | 381 kts | 130° |
| 2026-04-17 17:41 | 6.36318 | 124.85996 | 14643 ft | 369 kts | 125° |
| 2026-04-17 17:41 | 6.34880 | 124.88081 | 14508 ft | 355 kts | 125° |
| 2026-04-17 17:41 | 6.33504 | 124.90095 | 14375 ft | 343 kts | 125° |
| 2026-04-17 17:42 | 6.32163 | 124.92045 | 14246 ft | 331 kts | 125° |
| 2026-04-17 17:42 | 6.30864 | 124.93923 | 14130 ft | 319 kts | 125° |
| 2026-04-17 17:42 | 6.29454 | 124.95600 | 13895 ft | 310 kts | 144° |
| 2026-04-17 17:42 | 6.27503 | 124.96439 | 13605 ft | 299 kts | 175° |
| 2026-04-17 17:43 | 6.25484 | 124.96162 | 13318 ft | 290 kts | 206° |
| 2026-04-17 17:43 | 6.23883 | 124.94968 | 13045 ft | 283 kts | 231° |
| 2026-04-17 17:43 | 6.22928 | 124.93253 | 12772 ft | 277 kts | 254° |
| 2026-04-17 17:43 | 6.22744 | 124.91341 | 12503 ft | 273 kts | 277° |
| 2026-04-17 17:44 | 6.23342 | 124.89551 | 12346 ft | 265 kts | 300° |
| 2026-04-17 17:44 | 6.24376 | 124.88044 | 12302 ft | 251 kts | 304° |
| 2026-04-17 17:44 | 6.25366 | 124.86668 | 12278 ft | 239 kts | 306° |
| 2026-04-17 17:44 | 6.26578 | 124.85561 | 12345 ft | 229 kts | 329° |
| 2026-04-17 17:45 | 6.28058 | 124.85091 | 12329 ft | 209 kts | 350° |
| 2026-04-17 17:45 | 6.29439 | 124.85216 | 12153 ft | 196 kts | 22° |
| 2026-04-17 17:45 | 6.30430 | 124.86085 | 11889 ft | 186 kts | 59° |
| 2026-04-17 17:45 | 6.30751 | 124.87306 | 11623 ft | 175 kts | 93° |
| 2026-04-17 17:46 | 6.30402 | 124.88457 | 11377 ft | 170 kts | 121° |
| 2026-04-17 17:46 | 6.23581 | 124.98473 | 9200 ft | 168 kts | 124° |
| 2026-04-17 17:46 | 6.13277 | 125.14041 | 7149 ft | 162 kts | 122° |
| 2026-04-17 17:46 | 6.10596 | 125.17905 | 6639 ft | 159 kts | 139° |
| 2026-04-17 17:47 | 6.09634 | 125.18449 | 6520 ft | 158 kts | 159° |
| 2026-04-17 17:47 | 6.08561 | 125.18696 | 6400 ft | 159 kts | 172° |
| 2026-04-17 17:47 | 5.95574 | 125.20053 | 5202 ft | 158 kts | 172° |
| 2026-04-17 17:47 | 5.90723 | 125.20635 | 4715 ft | 153 kts | 185° |
| 2026-04-17 17:48 | 5.89694 | 125.20324 | 4516 ft | 153 kts | 207° |
| 2026-04-17 17:48 | 5.88838 | 125.19690 | 4232 ft | 151 kts | 226° |
| 2026-04-17 17:48 | 5.87917 | 125.18277 | 3968 ft | 150 kts | 248° |
| 2026-04-17 17:48 | 5.87345 | 125.13821 | 3841 ft | 150 kts | 265° |
| 2026-04-17 17:49 | 5.87470 | 125.12790 | 3735 ft | 151 kts | 294° |